sensor_id;sensor_type;location;lat;lon;timestamp;P1;durP1;ratioP1;P2;durP2;ratioP2
11386;SDS011;5748;53.102;8.456;2024-01-10T00:00:25;5.30;;;4.80;;
11386;SDS011;5748;53.102;8.456;2024-01-10T00:02:52;6.73;;;6.13;;
11386;SDS011;5748;53.102;8.456;2024-01-10T00:05:19;6.07;;;5.50;;
11386;SDS011;5748;53.102;8.456;2024-01-10T00:07:47;5.53;;;5.00;;
11386;SDS011;5748;53.102;8.456;2024-01-10T00:10:14;7.03;;;5.90;;
11386;SDS011;5748;53.102;8.456;2024-01-10T00:12:42;6.30;;;5.80;;
11386;SDS011;5748;53.102;8.456;2024-01-10T00:15:09;6.27;;;5.77;;
11386;SDS011;5748;53.102;8.456;2024-01-10T00:17:37;7.17;;;6.47;;
11386;SDS011;5748;53.102;8.456;2024-01-10T00:20:05;7.13;;;6.53;;
11386;SDS011;5748;53.102;8.456;2024-01-10T00:22:34;7.30;;;6.70;;
11386;SDS011;5748;53.102;8.456;2024-01-10T00:25:02;8.10;;;7.40;;
11386;SDS011;5748;53.102;8.456;2024-01-10T00:27:30;6.87;;;6.17;;
11386;SDS011;5748;53.102;8.456;2024-01-10T00:29:57;6.70;;;6.00;;
11386;SDS011;5748;53.102;8.456;2024-01-10T00:32:24;6.43;;;5.83;;
11386;SDS011;5748;53.102;8.456;2024-01-10T00:34:51;6.40;;;5.80;;
11386;SDS011;5748;53.102;8.456;2024-01-10T00:37:18;6.17;;;5.57;;
11386;SDS011;5748;53.102;8.456;2024-01-10T00:39:45;6.57;;;5.97;;
11386;SDS011;5748;53.102;8.456;2024-01-10T00:42:13;6.10;;;5.50;;
11386;SDS011;5748;53.102;8.456;2024-01-10T00:44:40;6.20;;;5.60;;
11386;SDS011;5748;53.102;8.456;2024-01-10T00:47:07;6.73;;;6.03;;
11386;SDS011;5748;53.102;8.456;2024-01-10T00:49:34;6.90;;;6.20;;
11386;SDS011;5748;53.102;8.456;2024-01-10T00:52:02;6.40;;;5.57;;
11386;SDS011;5748;53.102;8.456;2024-01-10T00:54:29;6.13;;;5.53;;
11386;SDS011;5748;53.102;8.456;2024-01-10T00:56:56;7.63;;;7.03;;
11386;SDS011;5748;53.102;8.456;2024-01-10T00:59:25;6.97;;;5.97;;
11386;SDS011;5748;53.102;8.456;2024-01-10T01:01:52;6.10;;;5.50;;
11386;SDS011;5748;53.102;8.456;2024-01-10T01:04:19;7.57;;;6.97;;
11386;SDS011;5748;53.102;8.456;2024-01-10T01:06:46;6.47;;;5.83;;
11386;SDS011;5748;53.102;8.456;2024-01-10T01:09:13;8.27;;;7.57;;
11386;SDS011;5748;53.102;8.456;2024-01-10T01:11:40;7.37;;;6.67;;
11386;SDS011;5748;53.102;8.456;2024-01-10T01:14:07;6.33;;;5.70;;
11386;SDS011;5748;53.102;8.456;2024-01-10T01:16:36;6.23;;;5.63;;
11386;SDS011;5748;53.102;8.456;2024-01-10T01:19:03;6.23;;;5.63;;
11386;SDS011;5748;53.102;8.456;2024-01-10T01:21:30;6.27;;;5.67;;
11386;SDS011;5748;53.102;8.456;2024-01-10T01:23:57;7.03;;;6.43;;
11386;SDS011;5748;53.102;8.456;2024-01-10T01:26:24;7.00;;;6.30;;
11386;SDS011;5748;53.102;8.456;2024-01-10T01:28:51;6.07;;;5.47;;
11386;SDS011;5748;53.102;8.456;2024-01-10T01:31:18;6.50;;;5.90;;
11386;SDS011;5748;53.102;8.456;2024-01-10T01:33:46;7.13;;;6.53;;
11386;SDS011;5748;53.102;8.456;2024-01-10T01:36:14;6.80;;;6.10;;
11386;SDS011;5748;53.102;8.456;2024-01-10T01:38:40;6.20;;;5.60;;
11386;SDS011;5748;53.102;8.456;2024-01-10T01:41:08;6.27;;;5.67;;
11386;SDS011;5748;53.102;8.456;2024-01-10T01:43:35;6.30;;;5.70;;
11386;SDS011;5748;53.102;8.456;2024-01-10T01:46:02;6.67;;;6.00;;
11386;SDS011;5748;53.102;8.456;2024-01-10T01:48:29;6.47;;;5.87;;
11386;SDS011;5748;53.102;8.456;2024-01-10T01:50:59;5.87;;;5.30;;
11386;SDS011;5748;53.102;8.456;2024-01-10T01:53:29;7.90;;;7.20;;
11386;SDS011;5748;53.102;8.456;2024-01-10T01:55:57;7.20;;;6.30;;
11386;SDS011;5748;53.102;8.456;2024-01-10T01:58:29;6.87;;;5.93;;
11386;SDS011;5748;53.102;8.456;2024-01-10T02:00:56;6.77;;;6.07;;
11386;SDS011;5748;53.102;8.456;2024-01-10T02:03:24;6.30;;;5.70;;
11386;SDS011;5748;53.102;8.456;2024-01-10T02:05:51;6.60;;;6.00;;
11386;SDS011;5748;53.102;8.456;2024-01-10T02:08:21;5.60;;;5.10;;
11386;SDS011;5748;53.102;8.456;2024-01-10T02:10:48;6.83;;;6.23;;
11386;SDS011;5748;53.102;8.456;2024-01-10T02:13:15;7.60;;;7.00;;
11386;SDS011;5748;53.102;8.456;2024-01-10T02:15:43;6.77;;;6.17;;
11386;SDS011;5748;53.102;8.456;2024-01-10T02:18:10;6.40;;;5.70;;
11386;SDS011;5748;53.102;8.456;2024-01-10T02:20:39;6.03;;;5.43;;
11386;SDS011;5748;53.102;8.456;2024-01-10T02:23:09;6.10;;;5.50;;
11386;SDS011;5748;53.102;8.456;2024-01-10T02:25:38;6.30;;;5.70;;
11386;SDS011;5748;53.102;8.456;2024-01-10T02:28:06;6.00;;;5.40;;
11386;SDS011;5748;53.102;8.456;2024-01-10T02:30:34;6.20;;;5.60;;
11386;SDS011;5748;53.102;8.456;2024-01-10T02:33:01;6.30;;;5.70;;
11386;SDS011;5748;53.102;8.456;2024-01-10T02:35:29;5.37;;;4.87;;
11386;SDS011;5748;53.102;8.456;2024-01-10T02:37:58;6.43;;;5.70;;
11386;SDS011;5748;53.102;8.456;2024-01-10T02:40:25;6.03;;;5.43;;
11386;SDS011;5748;53.102;8.456;2024-01-10T02:42:53;5.80;;;5.20;;
11386;SDS011;5748;53.102;8.456;2024-01-10T02:45:20;5.73;;;5.13;;
11386;SDS011;5748;53.102;8.456;2024-01-10T02:47:47;6.33;;;5.33;;
11386;SDS011;5748;53.102;8.456;2024-01-10T02:50:14;5.57;;;5.07;;
11386;SDS011;5748;53.102;8.456;2024-01-10T02:52:42;5.63;;;5.13;;
11386;SDS011;5748;53.102;8.456;2024-01-10T02:55:09;6.40;;;5.80;;
11386;SDS011;5748;53.102;8.456;2024-01-10T02:57:36;6.63;;;6.03;;
11386;SDS011;5748;53.102;8.456;2024-01-10T03:00:05;6.33;;;5.73;;
11386;SDS011;5748;53.102;8.456;2024-01-10T03:02:34;5.63;;;5.13;;
11386;SDS011;5748;53.102;8.456;2024-01-10T03:05:01;6.20;;;5.60;;
11386;SDS011;5748;53.102;8.456;2024-01-10T03:07:28;6.03;;;5.53;;
11386;SDS011;5748;53.102;8.456;2024-01-10T03:09:55;5.47;;;4.97;;
11386;SDS011;5748;53.102;8.456;2024-01-10T03:12:22;6.20;;;5.60;;
11386;SDS011;5748;53.102;8.456;2024-01-10T03:14:49;6.33;;;5.73;;
11386;SDS011;5748;53.102;8.456;2024-01-10T03:17:18;6.23;;;5.63;;
11386;SDS011;5748;53.102;8.456;2024-01-10T03:19:45;6.37;;;5.77;;
11386;SDS011;5748;53.102;8.456;2024-01-10T03:22:12;6.27;;;5.53;;
11386;SDS011;5748;53.102;8.456;2024-01-10T03:24:39;5.80;;;5.30;;
11386;SDS011;5748;53.102;8.456;2024-01-10T03:27:06;6.17;;;5.57;;
11386;SDS011;5748;53.102;8.456;2024-01-10T03:29:34;6.40;;;5.77;;
11386;SDS011;5748;53.102;8.456;2024-01-10T03:32:01;6.00;;;5.43;;
11386;SDS011;5748;53.102;8.456;2024-01-10T03:34:30;6.53;;;5.87;;
11386;SDS011;5748;53.102;8.456;2024-01-10T03:36:57;6.57;;;5.97;;
11386;SDS011;5748;53.102;8.456;2024-01-10T03:39:24;6.40;;;5.80;;
11386;SDS011;5748;53.102;8.456;2024-01-10T03:41:51;6.83;;;6.23;;
11386;SDS011;5748;53.102;8.456;2024-01-10T03:44:18;7.93;;;7.33;;
11386;SDS011;5748;53.102;8.456;2024-01-10T03:46:45;8.63;;;7.93;;
11386;SDS011;5748;53.102;8.456;2024-01-10T03:49:12;8.97;;;8.23;;
11386;SDS011;5748;53.102;8.456;2024-01-10T03:51:40;7.27;;;6.57;;
11386;SDS011;5748;53.102;8.456;2024-01-10T03:54:08;7.77;;;7.07;;
11386;SDS011;5748;53.102;8.456;2024-01-10T03:56:35;7.53;;;6.83;;
11386;SDS011;5748;53.102;8.456;2024-01-10T03:59:02;8.40;;;7.70;;
11386;SDS011;5748;53.102;8.456;2024-01-10T04:01:29;8.73;;;8.00;;
11386;SDS011;5748;53.102;8.456;2024-01-10T04:03:56;8.07;;;7.27;;
11386;SDS011;5748;53.102;8.456;2024-01-10T04:06:23;7.13;;;6.43;;
11386;SDS011;5748;53.102;8.456;2024-01-10T04:08:52;7.23;;;6.53;;
11386;SDS011;5748;53.102;8.456;2024-01-10T04:11:19;7.07;;;6.37;;
11386;SDS011;5748;53.102;8.456;2024-01-10T04:13:46;6.80;;;6.20;;
11386;SDS011;5748;53.102;8.456;2024-01-10T04:16:13;6.13;;;5.53;;
11386;SDS011;5748;53.102;8.456;2024-01-10T04:18:40;7.13;;;6.43;;
11386;SDS011;5748;53.102;8.456;2024-01-10T04:21:07;6.83;;;6.20;;
11386;SDS011;5748;53.102;8.456;2024-01-10T04:23:35;7.50;;;6.87;;
11386;SDS011;5748;53.102;8.456;2024-01-10T04:26:03;9.20;;;8.40;;
11386;SDS011;5748;53.102;8.456;2024-01-10T04:28:30;8.10;;;7.30;;
11386;SDS011;5748;53.102;8.456;2024-01-10T04:30:57;8.10;;;7.30;;
11386;SDS011;5748;53.102;8.456;2024-01-10T04:33:24;6.87;;;6.23;;
11386;SDS011;5748;53.102;8.456;2024-01-10T04:35:51;6.93;;;6.23;;
11386;SDS011;5748;53.102;8.456;2024-01-10T04:38:18;7.60;;;6.47;;
11386;SDS011;5748;53.102;8.456;2024-01-10T04:40:45;7.33;;;6.50;;
11386;SDS011;5748;53.102;8.456;2024-01-10T04:43:14;7.03;;;6.33;;
11386;SDS011;5748;53.102;8.456;2024-01-10T04:45:41;7.80;;;6.60;;
11386;SDS011;5748;53.102;8.456;2024-01-10T04:48:08;7.43;;;6.67;;
11386;SDS011;5748;53.102;8.456;2024-01-10T04:50:35;7.27;;;6.10;;
11386;SDS011;5748;53.102;8.456;2024-01-10T04:53:02;7.30;;;6.17;;
11386;SDS011;5748;53.102;8.456;2024-01-10T04:55:29;8.00;;;7.30;;
11386;SDS011;5748;53.102;8.456;2024-01-10T04:57:57;8.20;;;7.30;;
11386;SDS011;5748;53.102;8.456;2024-01-10T05:00:27;7.50;;;6.80;;
11386;SDS011;5748;53.102;8.456;2024-01-10T05:02:54;7.73;;;6.87;;
11386;SDS011;5748;53.102;8.456;2024-01-10T05:05:21;8.17;;;7.37;;
11386;SDS011;5748;53.102;8.456;2024-01-10T05:07:49;8.47;;;7.70;;
11386;SDS011;5748;53.102;8.456;2024-01-10T05:10:16;8.67;;;7.70;;
11386;SDS011;5748;53.102;8.456;2024-01-10T05:12:43;8.40;;;7.53;;
11386;SDS011;5748;53.102;8.456;2024-01-10T05:15:10;6.93;;;6.23;;
11386;SDS011;5748;53.102;8.456;2024-01-10T05:17:39;8.23;;;6.90;;
11386;SDS011;5748;53.102;8.456;2024-01-10T05:20:06;7.50;;;6.70;;
11386;SDS011;5748;53.102;8.456;2024-01-10T05:22:34;8.27;;;7.03;;
11386;SDS011;5748;53.102;8.456;2024-01-10T05:25:02;7.50;;;6.43;;
11386;SDS011;5748;53.102;8.456;2024-01-10T05:27:30;7.13;;;6.40;;
11386;SDS011;5748;53.102;8.456;2024-01-10T05:29:57;7.07;;;6.30;;
11386;SDS011;5748;53.102;8.456;2024-01-10T05:32:24;7.50;;;6.70;;
11386;SDS011;5748;53.102;8.456;2024-01-10T05:34:53;7.80;;;6.90;;
11386;SDS011;5748;53.102;8.456;2024-01-10T05:37:20;7.83;;;6.70;;
11386;SDS011;5748;53.102;8.456;2024-01-10T05:39:47;7.67;;;6.60;;
11386;SDS011;5748;53.102;8.456;2024-01-10T05:42:14;7.83;;;6.80;;
11386;SDS011;5748;53.102;8.456;2024-01-10T05:44:41;7.03;;;6.33;;
11386;SDS011;5748;53.102;8.456;2024-01-10T05:47:08;7.10;;;6.23;;
11386;SDS011;5748;53.102;8.456;2024-01-10T05:49:35;7.33;;;6.40;;
11386;SDS011;5748;53.102;8.456;2024-01-10T05:52:04;7.73;;;6.73;;
11386;SDS011;5748;53.102;8.456;2024-01-10T05:54:31;7.30;;;6.50;;
11386;SDS011;5748;53.102;8.456;2024-01-10T05:56:58;7.40;;;6.30;;
11386;SDS011;5748;53.102;8.456;2024-01-10T05:59:27;6.57;;;5.93;;
11386;SDS011;5748;53.102;8.456;2024-01-10T06:01:55;7.40;;;5.97;;
11386;SDS011;5748;53.102;8.456;2024-01-10T06:04:23;6.70;;;5.73;;
11386;SDS011;5748;53.102;8.456;2024-01-10T06:06:50;7.23;;;6.40;;
11386;SDS011;5748;53.102;8.456;2024-01-10T06:09:19;7.47;;;6.60;;
11386;SDS011;5748;53.102;8.456;2024-01-10T06:11:47;8.13;;;7.00;;
11386;SDS011;5748;53.102;8.456;2024-01-10T06:14:14;7.73;;;6.87;;
11386;SDS011;5748;53.102;8.456;2024-01-10T06:16:41;7.87;;;7.00;;
11386;SDS011;5748;53.102;8.456;2024-01-10T06:19:08;7.00;;;6.30;;
11386;SDS011;5748;53.102;8.456;2024-01-10T06:21:36;7.83;;;6.43;;
11386;SDS011;5748;53.102;8.456;2024-01-10T06:24:03;8.40;;;7.03;;
11386;SDS011;5748;53.102;8.456;2024-01-10T06:26:32;8.27;;;6.77;;
11386;SDS011;5748;53.102;8.456;2024-01-10T06:28:59;7.70;;;6.77;;
11386;SDS011;5748;53.102;8.456;2024-01-10T06:31:26;7.07;;;6.37;;
11386;SDS011;5748;53.102;8.456;2024-01-10T06:33:53;7.27;;;6.50;;
11386;SDS011;5748;53.102;8.456;2024-01-10T06:36:20;8.20;;;6.43;;
11386;SDS011;5748;53.102;8.456;2024-01-10T06:38:48;6.83;;;6.13;;
11386;SDS011;5748;53.102;8.456;2024-01-10T06:41:15;7.07;;;6.37;;
11386;SDS011;5748;53.102;8.456;2024-01-10T06:43:43;7.20;;;6.40;;
11386;SDS011;5748;53.102;8.456;2024-01-10T06:46:10;7.53;;;6.17;;
11386;SDS011;5748;53.102;8.456;2024-01-10T06:48:37;7.47;;;6.50;;
11386;SDS011;5748;53.102;8.456;2024-01-10T06:51:06;7.57;;;6.53;;
11386;SDS011;5748;53.102;8.456;2024-01-10T06:53:37;7.57;;;6.37;;
11386;SDS011;5748;53.102;8.456;2024-01-10T06:56:04;6.83;;;6.13;;
11386;SDS011;5748;53.102;8.456;2024-01-10T06:58:34;6.97;;;6.27;;
11386;SDS011;5748;53.102;8.456;2024-01-10T07:01:03;7.10;;;6.40;;
11386;SDS011;5748;53.102;8.456;2024-01-10T07:03:30;7.87;;;6.50;;
11386;SDS011;5748;53.102;8.456;2024-01-10T07:05:59;7.87;;;6.93;;
11386;SDS011;5748;53.102;8.456;2024-01-10T07:08:27;8.33;;;6.93;;
11386;SDS011;5748;53.102;8.456;2024-01-10T07:10:55;7.53;;;6.70;;
11386;SDS011;5748;53.102;8.456;2024-01-10T07:13:22;6.83;;;6.13;;
11386;SDS011;5748;53.102;8.456;2024-01-10T07:15:49;6.97;;;5.90;;
11386;SDS011;5748;53.102;8.456;2024-01-10T07:18:19;7.00;;;5.90;;
11386;SDS011;5748;53.102;8.456;2024-01-10T07:20:46;7.00;;;6.30;;
11386;SDS011;5748;53.102;8.456;2024-01-10T07:23:13;7.17;;;6.10;;
11386;SDS011;5748;53.102;8.456;2024-01-10T07:25:40;7.53;;;6.33;;
11386;SDS011;5748;53.102;8.456;2024-01-10T07:28:07;8.07;;;6.37;;
11386;SDS011;5748;53.102;8.456;2024-01-10T07:30:34;7.63;;;6.20;;
11386;SDS011;5748;53.102;8.456;2024-01-10T07:33:01;6.93;;;6.13;;
11386;SDS011;5748;53.102;8.456;2024-01-10T07:35:30;7.50;;;6.57;;
11386;SDS011;5748;53.102;8.456;2024-01-10T07:37:57;7.63;;;6.23;;
11386;SDS011;5748;53.102;8.456;2024-01-10T07:40:24;8.00;;;6.40;;
11386;SDS011;5748;53.102;8.456;2024-01-10T07:42:51;6.67;;;5.90;;
11386;SDS011;5748;53.102;8.456;2024-01-10T07:45:18;7.33;;;6.47;;
11386;SDS011;5748;53.102;8.456;2024-01-10T07:47:45;6.83;;;6.13;;
11386;SDS011;5748;53.102;8.456;2024-01-10T07:50:12;7.10;;;6.00;;
11386;SDS011;5748;53.102;8.456;2024-01-10T07:52:41;7.37;;;6.43;;
11386;SDS011;5748;53.102;8.456;2024-01-10T07:55:11;6.90;;;6.20;;
11386;SDS011;5748;53.102;8.456;2024-01-10T07:57:38;6.87;;;6.17;;
11386;SDS011;5748;53.102;8.456;2024-01-10T08:00:07;7.03;;;6.33;;
11386;SDS011;5748;53.102;8.456;2024-01-10T08:02:35;6.70;;;6.00;;
11386;SDS011;5748;53.102;8.456;2024-01-10T08:05:03;7.30;;;6.50;;
11386;SDS011;5748;53.102;8.456;2024-01-10T08:07:33;6.83;;;6.10;;
11386;SDS011;5748;53.102;8.456;2024-01-10T08:10:03;6.47;;;5.80;;
11386;SDS011;5748;53.102;8.456;2024-01-10T08:12:30;6.47;;;5.80;;
11386;SDS011;5748;53.102;8.456;2024-01-10T08:14:57;6.77;;;6.00;;
11386;SDS011;5748;53.102;8.456;2024-01-10T08:17:25;6.67;;;5.93;;
11386;SDS011;5748;53.102;8.456;2024-01-10T08:19:52;7.87;;;7.17;;
11386;SDS011;5748;53.102;8.456;2024-01-10T08:22:19;8.00;;;6.53;;
11386;SDS011;5748;53.102;8.456;2024-01-10T08:24:46;7.50;;;6.43;;
11386;SDS011;5748;53.102;8.456;2024-01-10T08:27:15;7.00;;;6.30;;
11386;SDS011;5748;53.102;8.456;2024-01-10T08:29:43;6.13;;;5.53;;
11386;SDS011;5748;53.102;8.456;2024-01-10T08:32:13;6.60;;;5.90;;
11386;SDS011;5748;53.102;8.456;2024-01-10T08:34:42;6.63;;;5.60;;
11386;SDS011;5748;53.102;8.456;2024-01-10T08:37:10;6.50;;;5.87;;
11386;SDS011;5748;53.102;8.456;2024-01-10T08:39:37;7.00;;;6.30;;
11386;SDS011;5748;53.102;8.456;2024-01-10T08:42:04;7.77;;;6.70;;
11386;SDS011;5748;53.102;8.456;2024-01-10T08:44:36;7.60;;;6.30;;
11386;SDS011;5748;53.102;8.456;2024-01-10T08:47:03;7.63;;;6.83;;
11386;SDS011;5748;53.102;8.456;2024-01-10T08:49:30;7.80;;;6.70;;
11386;SDS011;5748;53.102;8.456;2024-01-10T08:51:57;7.10;;;6.37;;
11386;SDS011;5748;53.102;8.456;2024-01-10T08:54:24;7.90;;;6.73;;
11386;SDS011;5748;53.102;8.456;2024-01-10T08:56:52;7.73;;;6.73;;
11386;SDS011;5748;53.102;8.456;2024-01-10T08:59:19;9.20;;;7.40;;
11386;SDS011;5748;53.102;8.456;2024-01-10T09:01:47;8.73;;;7.43;;
11386;SDS011;5748;53.102;8.456;2024-01-10T09:04:14;8.13;;;6.73;;
11386;SDS011;5748;53.102;8.456;2024-01-10T09:06:41;7.50;;;6.70;;
11386;SDS011;5748;53.102;8.456;2024-01-10T09:09:09;9.90;;;8.23;;
11386;SDS011;5748;53.102;8.456;2024-01-10T09:11:38;8.30;;;7.30;;
11386;SDS011;5748;53.102;8.456;2024-01-10T09:14:05;8.43;;;7.23;;
11386;SDS011;5748;53.102;8.456;2024-01-10T09:16:33;7.70;;;6.67;;
11386;SDS011;5748;53.102;8.456;2024-01-10T09:19:02;8.30;;;7.13;;
11386;SDS011;5748;53.102;8.456;2024-01-10T09:21:29;7.47;;;6.67;;
11386;SDS011;5748;53.102;8.456;2024-01-10T09:23:56;8.23;;;7.07;;
11386;SDS011;5748;53.102;8.456;2024-01-10T09:26:23;7.13;;;5.87;;
11386;SDS011;5748;53.102;8.456;2024-01-10T09:28:50;8.90;;;7.17;;
11386;SDS011;5748;53.102;8.456;2024-01-10T09:31:17;8.13;;;6.80;;
11386;SDS011;5748;53.102;8.456;2024-01-10T09:33:44;7.73;;;6.70;;
11386;SDS011;5748;53.102;8.456;2024-01-10T09:36:13;8.40;;;7.17;;
11386;SDS011;5748;53.102;8.456;2024-01-10T09:38:40;9.03;;;7.27;;
11386;SDS011;5748;53.102;8.456;2024-01-10T09:41:07;9.90;;;7.97;;
11386;SDS011;5748;53.102;8.456;2024-01-10T09:43:34;8.87;;;7.53;;
11386;SDS011;5748;53.102;8.456;2024-01-10T09:46:01;8.47;;;7.10;;
11386;SDS011;5748;53.102;8.456;2024-01-10T09:48:30;8.03;;;7.23;;
11386;SDS011;5748;53.102;8.456;2024-01-10T09:50:57;8.47;;;6.77;;
11386;SDS011;5748;53.102;8.456;2024-01-10T09:53:27;8.40;;;6.73;;
11386;SDS011;5748;53.102;8.456;2024-01-10T09:55:57;8.00;;;6.90;;
11386;SDS011;5748;53.102;8.456;2024-01-10T09:58:26;7.60;;;6.50;;
11386;SDS011;5748;53.102;8.456;2024-01-10T10:00:53;8.13;;;7.03;;
11386;SDS011;5748;53.102;8.456;2024-01-10T10:03:21;8.73;;;7.03;;
11386;SDS011;5748;53.102;8.456;2024-01-10T10:05:48;7.83;;;7.03;;
11386;SDS011;5748;53.102;8.456;2024-01-10T10:08:15;9.53;;;7.87;;
11386;SDS011;5748;53.102;8.456;2024-01-10T10:10:49;10.07;;;7.77;;
11386;SDS011;5748;53.102;8.456;2024-01-10T10:13:23;10.50;;;9.50;;
11386;SDS011;5748;53.102;8.456;2024-01-10T10:15:57;9.67;;;8.77;;
11386;SDS011;5748;53.102;8.456;2024-01-10T10:18:25;10.37;;;9.37;;
11386;SDS011;5748;53.102;8.456;2024-01-10T10:21:06;10.17;;;9.17;;
11386;SDS011;5748;53.102;8.456;2024-01-10T10:23:36;8.70;;;7.87;;
11386;SDS011;5748;53.102;8.456;2024-01-10T10:26:11;9.73;;;8.73;;
11386;SDS011;5748;53.102;8.456;2024-01-10T10:28:44;10.50;;;9.50;;
11386;SDS011;5748;53.102;8.456;2024-01-10T10:31:11;9.63;;;8.73;;
11386;SDS011;5748;53.102;8.456;2024-01-10T10:33:39;8.20;;;7.33;;
11386;SDS011;5748;53.102;8.456;2024-01-10T10:36:07;9.50;;;8.60;;
11386;SDS011;5748;53.102;8.456;2024-01-10T10:38:34;9.10;;;8.30;;
11386;SDS011;5748;53.102;8.456;2024-01-10T10:41:02;9.23;;;8.33;;
11386;SDS011;5748;53.102;8.456;2024-01-10T10:43:34;9.07;;;8.17;;
11386;SDS011;5748;53.102;8.456;2024-01-10T10:46:02;9.07;;;8.17;;
11386;SDS011;5748;53.102;8.456;2024-01-10T10:48:32;7.97;;;7.27;;
11386;SDS011;5748;53.102;8.456;2024-01-10T10:51:03;9.53;;;8.53;;
11386;SDS011;5748;53.102;8.456;2024-01-10T10:53:36;9.53;;;8.63;;
11386;SDS011;5748;53.102;8.456;2024-01-10T10:56:05;9.07;;;8.17;;
11386;SDS011;5748;53.102;8.456;2024-01-10T10:58:35;9.07;;;8.20;;
11386;SDS011;5748;53.102;8.456;2024-01-10T11:01:06;8.70;;;7.80;;
11386;SDS011;5748;53.102;8.456;2024-01-10T11:03:34;9.43;;;8.20;;
11386;SDS011;5748;53.102;8.456;2024-01-10T11:06:03;8.93;;;8.03;;
11386;SDS011;5748;53.102;8.456;2024-01-10T11:08:33;9.20;;;8.30;;
11386;SDS011;5748;53.102;8.456;2024-01-10T11:11:03;9.10;;;8.20;;
11386;SDS011;5748;53.102;8.456;2024-01-10T11:13:47;10.47;;;9.47;;
11386;SDS011;5748;53.102;8.456;2024-01-10T11:16:39;8.80;;;8.00;;
11386;SDS011;5748;53.102;8.456;2024-01-10T11:22:46;8.17;;;7.37;;
11386;SDS011;5748;53.102;8.456;2024-01-10T11:25:34;8.13;;;7.43;;
11386;SDS011;5748;53.102;8.456;2024-01-10T11:28:02;7.40;;;6.70;;
11386;SDS011;5748;53.102;8.456;2024-01-10T11:30:31;7.33;;;6.63;;
11386;SDS011;5748;53.102;8.456;2024-01-10T11:33:01;7.20;;;6.50;;
11386;SDS011;5748;53.102;8.456;2024-01-10T11:35:28;7.37;;;6.67;;
11386;SDS011;5748;53.102;8.456;2024-01-10T11:37:59;6.40;;;5.80;;
11386;SDS011;5748;53.102;8.456;2024-01-10T11:43:13;6.07;;;5.47;;
11386;SDS011;5748;53.102;8.456;2024-01-10T11:45:51;6.13;;;5.53;;
11386;SDS011;5748;53.102;8.456;2024-01-10T11:48:25;5.93;;;5.23;;
11386;SDS011;5748;53.102;8.456;2024-01-10T11:50:53;5.10;;;4.60;;
11386;SDS011;5748;53.102;8.456;2024-01-10T11:53:40;5.20;;;4.03;;
11386;SDS011;5748;53.102;8.456;2024-01-10T11:56:10;4.37;;;3.97;;
11386;SDS011;5748;53.102;8.456;2024-01-10T11:58:54;4.50;;;3.77;;
11386;SDS011;5748;53.102;8.456;2024-01-10T12:01:35;3.93;;;3.53;;
11386;SDS011;5748;53.102;8.456;2024-01-10T12:04:03;3.90;;;3.40;;
11386;SDS011;5748;53.102;8.456;2024-01-10T12:06:31;4.80;;;4.07;;
11386;SDS011;5748;53.102;8.456;2024-01-10T12:08:58;4.23;;;3.83;;
11386;SDS011;5748;53.102;8.456;2024-01-10T12:11:29;4.20;;;3.80;;
11386;SDS011;5748;53.102;8.456;2024-01-10T12:13:57;4.03;;;3.30;;
11386;SDS011;5748;53.102;8.456;2024-01-10T12:16:24;3.83;;;3.30;;
11386;SDS011;5748;53.102;8.456;2024-01-10T12:18:53;3.77;;;3.37;;
11386;SDS011;5748;53.102;8.456;2024-01-10T12:21:20;3.53;;;3.23;;
11386;SDS011;5748;53.102;8.456;2024-01-10T12:23:47;3.67;;;3.27;;
11386;SDS011;5748;53.102;8.456;2024-01-10T12:26:14;3.63;;;3.33;;
11386;SDS011;5748;53.102;8.456;2024-01-10T12:28:41;4.00;;;3.60;;
11386;SDS011;5748;53.102;8.456;2024-01-10T12:31:20;4.33;;;3.93;;
11386;SDS011;5748;53.102;8.456;2024-01-10T12:33:48;4.33;;;3.67;;
11386;SDS011;5748;53.102;8.456;2024-01-10T12:36:17;3.90;;;3.50;;
11386;SDS011;5748;53.102;8.456;2024-01-10T12:38:45;4.50;;;3.37;;
11386;SDS011;5748;53.102;8.456;2024-01-10T12:41:14;5.57;;;4.67;;
11386;SDS011;5748;53.102;8.456;2024-01-10T12:43:42;4.93;;;4.30;;
11386;SDS011;5748;53.102;8.456;2024-01-10T12:46:09;4.50;;;4.10;;
11386;SDS011;5748;53.102;8.456;2024-01-10T12:48:38;4.40;;;4.00;;
11386;SDS011;5748;53.102;8.456;2024-01-10T12:51:07;4.33;;;3.87;;
11386;SDS011;5748;53.102;8.456;2024-01-10T12:53:36;4.00;;;3.60;;
11386;SDS011;5748;53.102;8.456;2024-01-10T12:56:05;4.10;;;3.70;;
11386;SDS011;5748;53.102;8.456;2024-01-10T12:58:33;4.50;;;4.10;;
11386;SDS011;5748;53.102;8.456;2024-01-10T13:01:02;4.43;;;4.03;;
11386;SDS011;5748;53.102;8.456;2024-01-10T13:03:29;4.63;;;3.87;;
11386;SDS011;5748;53.102;8.456;2024-01-10T13:05:56;4.30;;;3.80;;
11386;SDS011;5748;53.102;8.456;2024-01-10T13:08:24;4.20;;;3.80;;
11386;SDS011;5748;53.102;8.456;2024-01-10T13:10:52;4.47;;;3.63;;
11386;SDS011;5748;53.102;8.456;2024-01-10T13:13:20;5.17;;;4.37;;
11386;SDS011;5748;53.102;8.456;2024-01-10T13:15:47;4.50;;;4.10;;
11386;SDS011;5748;53.102;8.456;2024-01-10T13:18:15;5.33;;;4.70;;
11386;SDS011;5748;53.102;8.456;2024-01-10T13:20:43;4.83;;;4.33;;
11386;SDS011;5748;53.102;8.456;2024-01-10T13:23:11;4.33;;;3.93;;
11386;SDS011;5748;53.102;8.456;2024-01-10T13:25:38;4.70;;;4.20;;
11386;SDS011;5748;53.102;8.456;2024-01-10T13:28:06;4.37;;;3.97;;
11386;SDS011;5748;53.102;8.456;2024-01-10T13:30:37;4.07;;;3.67;;
11386;SDS011;5748;53.102;8.456;2024-01-10T13:33:06;4.43;;;4.03;;
11386;SDS011;5748;53.102;8.456;2024-01-10T13:35:34;4.93;;;4.50;;
11386;SDS011;5748;53.102;8.456;2024-01-10T13:38:01;4.77;;;4.37;;
11386;SDS011;5748;53.102;8.456;2024-01-10T13:40:29;5.23;;;4.73;;
11386;SDS011;5748;53.102;8.456;2024-01-10T13:42:56;4.87;;;4.47;;
11386;SDS011;5748;53.102;8.456;2024-01-10T13:45:28;4.97;;;4.57;;
11386;SDS011;5748;53.102;8.456;2024-01-10T13:47:56;4.90;;;4.50;;
11386;SDS011;5748;53.102;8.456;2024-01-10T13:50:23;5.00;;;4.57;;
11386;SDS011;5748;53.102;8.456;2024-01-10T13:52:50;5.10;;;4.60;;
11386;SDS011;5748;53.102;8.456;2024-01-10T13:55:18;5.37;;;4.87;;
11386;SDS011;5748;53.102;8.456;2024-01-10T13:57:48;5.40;;;4.90;;
11386;SDS011;5748;53.102;8.456;2024-01-10T14:00:16;5.33;;;4.83;;
11386;SDS011;5748;53.102;8.456;2024-01-10T14:02:47;4.93;;;4.53;;
11386;SDS011;5748;53.102;8.456;2024-01-10T14:05:14;5.73;;;5.23;;
11386;SDS011;5748;53.102;8.456;2024-01-10T14:07:41;5.90;;;5.27;;
11386;SDS011;5748;53.102;8.456;2024-01-10T14:10:11;5.07;;;4.60;;
11386;SDS011;5748;53.102;8.456;2024-01-10T14:12:38;4.97;;;4.57;;
11386;SDS011;5748;53.102;8.456;2024-01-10T14:15:06;5.00;;;4.50;;
11386;SDS011;5748;53.102;8.456;2024-01-10T14:17:34;5.40;;;4.90;;
11386;SDS011;5748;53.102;8.456;2024-01-10T14:20:02;5.17;;;4.77;;
11386;SDS011;5748;53.102;8.456;2024-01-10T14:22:33;5.20;;;4.70;;
11386;SDS011;5748;53.102;8.456;2024-01-10T14:25:01;5.87;;;5.37;;
11386;SDS011;5748;53.102;8.456;2024-01-10T14:27:30;5.57;;;5.07;;
11386;SDS011;5748;53.102;8.456;2024-01-10T14:29:57;5.70;;;5.20;;
11386;SDS011;5748;53.102;8.456;2024-01-10T14:32:28;5.57;;;5.07;;
11386;SDS011;5748;53.102;8.456;2024-01-10T14:34:58;6.23;;;5.70;;
11386;SDS011;5748;53.102;8.456;2024-01-10T14:37:26;6.20;;;5.70;;
11386;SDS011;5748;53.102;8.456;2024-01-10T14:39:53;5.83;;;5.33;;
11386;SDS011;5748;53.102;8.456;2024-01-10T14:42:20;6.03;;;5.53;;
11386;SDS011;5748;53.102;8.456;2024-01-10T14:44:47;6.30;;;5.73;;
11386;SDS011;5748;53.102;8.456;2024-01-10T14:47:14;5.97;;;5.47;;
11386;SDS011;5748;53.102;8.456;2024-01-10T14:49:41;5.73;;;5.23;;
11386;SDS011;5748;53.102;8.456;2024-01-10T14:52:08;6.10;;;5.60;;
11386;SDS011;5748;53.102;8.456;2024-01-10T14:54:37;6.40;;;5.87;;
11386;SDS011;5748;53.102;8.456;2024-01-10T14:57:04;6.70;;;6.10;;
11386;SDS011;5748;53.102;8.456;2024-01-10T14:59:31;6.40;;;5.80;;
11386;SDS011;5748;53.102;8.456;2024-01-10T15:01:58;6.20;;;5.67;;
11386;SDS011;5748;53.102;8.456;2024-01-10T15:04:25;6.87;;;6.27;;
11386;SDS011;5748;53.102;8.456;2024-01-10T15:06:53;6.50;;;6.00;;
11386;SDS011;5748;53.102;8.456;2024-01-10T15:09:22;6.90;;;6.23;;
11386;SDS011;5748;53.102;8.456;2024-01-10T15:11:50;6.73;;;6.13;;